createdAt,value
2022-08-26T00:01:29.990Z,21.99
2022-08-26T00:04:32.325Z,21.95
2022-08-26T00:07:34.120Z,21.95
2022-08-26T00:10:37.383Z,21.93
2022-08-26T00:13:39.188Z,21.91
2022-08-26T00:16:47.973Z,21.86
2022-08-26T00:19:51.274Z,21.81
2022-08-26T00:22:55.358Z,21.81
2022-08-26T00:25:58.940Z,21.80
2022-08-26T00:29:01.321Z,21.77
2022-08-26T00:32:03.939Z,21.74
2022-08-26T00:35:06.573Z,21.72
2022-08-26T00:38:09.948Z,21.69
2022-08-26T00:41:13.470Z,21.66
2022-08-26T00:44:14.969Z,21.66
2022-08-26T00:47:21.896Z,21.64
2022-08-26T00:50:26.134Z,21.61
2022-08-26T00:53:30.887Z,21.56
2022-08-26T00:56:36.870Z,21.54
2022-08-26T00:59:39.439Z,21.51
2022-08-26T01:02:41.199Z,21.49
2022-08-26T01:05:48.543Z,21.46
2022-08-26T01:08:52.177Z,21.43
2022-08-26T01:11:56.262Z,21.42
2022-08-26T01:14:58.091Z,21.42
2022-08-26T01:17:59.842Z,21.42
2022-08-26T01:21:06.220Z,21.34
2022-08-26T01:24:10.547Z,21.30
2022-08-26T01:27:13.380Z,21.27
2022-08-26T01:30:15.067Z,21.22
2022-08-26T01:33:18.959Z,21.23
2022-08-26T01:36:20.618Z,21.21
2022-08-26T01:39:24.243Z,21.17
2022-08-26T01:42:27.455Z,21.12
2022-08-26T01:45:32.932Z,21.10
2022-08-26T01:48:36.637Z,21.10
2022-08-26T01:51:39.089Z,21.05
2022-08-26T01:54:42.795Z,21.03
2022-08-26T01:57:49.708Z,21.05
2022-08-26T02:00:54.451Z,21.08
2022-08-26T02:03:58.549Z,21.06
2022-08-26T02:07:02.760Z,21.01
2022-08-26T02:10:07.303Z,20.93
2022-08-26T02:13:10.199Z,20.90
2022-08-26T02:16:13.187Z,20.86
2022-08-26T02:19:17.134Z,20.83
2022-08-26T02:22:20.223Z,20.80
2022-08-26T02:25:25.189Z,20.79
2022-08-26T02:28:28.486Z,20.79
2022-08-26T02:31:30.328Z,20.79
2022-08-26T02:34:33.078Z,20.77
2022-08-26T02:37:34.797Z,20.73
2022-08-26T02:40:41.079Z,20.67
2022-08-26T02:43:43.426Z,20.65
2022-08-26T02:46:47.138Z,20.63
2022-08-26T02:49:49.748Z,20.64
2022-08-26T02:52:51.912Z,20.63
2022-08-26T02:55:55.334Z,20.62
2022-08-26T02:58:59.431Z,20.61
2022-08-26T03:02:01.720Z,20.63
2022-08-26T03:05:03.840Z,20.63
2022-08-26T03:08:05.762Z,20.62
2022-08-26T03:11:08.722Z,20.61
2022-08-26T03:14:13.370Z,20.59
2022-08-26T03:17:16.003Z,20.62
2022-08-26T03:20:17.695Z,20.61
2022-08-26T03:23:19.150Z,20.62
2022-08-26T03:26:23.088Z,20.66
2022-08-26T03:29:43.193Z,20.65
2022-08-26T03:32:44.920Z,20.61
2022-08-26T03:35:50.541Z,20.59
2022-08-26T03:38:52.422Z,20.59
2022-08-26T03:41:55.561Z,20.53
2022-08-26T03:44:57.315Z,20.47
2022-08-26T03:47:59.817Z,20.44
2022-08-26T03:51:01.507Z,20.44
2022-08-26T03:54:05.034Z,20.41
2022-08-26T03:57:11.093Z,20.39
2022-08-26T04:00:15.049Z,20.31
2022-08-26T04:03:39.986Z,20.26
2022-08-26T04:06:45.219Z,20.26
2022-08-26T04:09:46.877Z,20.27
2022-08-26T04:12:51.020Z,20.30
2022-08-26T04:15:52.718Z,20.32
2022-08-26T04:18:54.414Z,20.34
2022-08-26T04:21:56.179Z,20.39
2022-08-26T04:24:58.307Z,20.30
2022-08-26T04:28:02.447Z,20.23
2022-08-26T04:31:04.401Z,20.17
2022-08-26T04:34:07.009Z,20.14
2022-08-26T04:37:08.577Z,20.13
2022-08-26T04:40:10.234Z,20.12
2022-08-26T04:43:14.216Z,20.14
2022-08-26T04:46:17.446Z,20.19
2022-08-26T04:49:20.965Z,20.22
2022-08-26T04:52:22.505Z,20.23
2022-08-26T04:55:38.578Z,20.23
2022-08-26T04:58:45.676Z,20.26
2022-08-26T05:01:48.662Z,20.19
2022-08-26T05:04:51.952Z,20.19
2022-08-26T05:07:54.776Z,20.24
2022-08-26T05:10:56.922Z,20.28
2022-08-26T05:14:02.280Z,20.28
2022-08-26T05:17:04.006Z,20.32
2022-08-26T05:20:06.826Z,20.32
2022-08-26T05:23:08.579Z,20.37
2022-08-26T05:26:10.670Z,20.41
2022-08-26T05:29:14.225Z,20.42
2022-08-26T05:32:16.007Z,20.43
2022-08-26T05:35:18.037Z,20.42
2022-08-26T05:38:21.154Z,20.45
2022-08-26T05:41:25.003Z,20.47
2022-08-26T05:44:29.321Z,20.55
2022-08-26T05:47:51.378Z,20.63
2022-08-26T05:50:53.318Z,20.65
2022-08-26T05:53:55.885Z,20.72
2022-08-26T05:57:00.321Z,20.76
2022-08-26T06:00:04.533Z,20.81
2022-08-26T06:03:07.499Z,20.87
2022-08-26T06:06:11.073Z,20.88
2022-08-26T06:09:12.859Z,20.93
2022-08-26T06:12:15.772Z,20.95
2022-08-26T06:15:21.992Z,21.01
2022-08-26T06:18:27.993Z,21.06
2022-08-26T06:21:31.962Z,21.12
2022-08-26T06:24:52.519Z,21.21
2022-08-26T06:27:54.149Z,21.28
2022-08-26T06:30:57.329Z,21.36
2022-08-26T06:33:59.920Z,21.45
2022-08-26T06:37:02.839Z,21.54
2022-08-26T06:40:05.600Z,21.61
2022-08-26T06:43:07.325Z,21.68
2022-08-26T06:46:11.822Z,21.75
2022-08-26T06:49:13.567Z,21.86
2022-08-26T06:52:23.107Z,21.95
2022-08-26T06:55:27.060Z,21.99
2022-08-26T06:58:28.898Z,22.09
2022-08-26T07:01:33.729Z,22.15
2022-08-26T07:04:35.999Z,22.24
2022-08-26T07:07:38.493Z,22.32
2022-08-26T07:10:40.046Z,22.37
2022-08-26T07:13:41.802Z,22.39
2022-08-26T07:16:47.458Z,22.44
2022-08-26T07:19:49.144Z,22.43
2022-08-26T07:22:50.950Z,22.40
2022-08-26T07:25:52.428Z,22.40
2022-08-26T07:28:55.840Z,22.41
2022-08-26T07:31:59.821Z,22.44
2022-08-26T07:35:01.428Z,22.51
2022-08-26T07:38:03.170Z,22.55
2022-08-26T07:41:05.234Z,22.62
2022-08-26T07:44:08.719Z,22.69
2022-08-26T07:47:25.276Z,22.78
2022-08-26T07:50:49.355Z,22.89
2022-08-26T07:53:52.317Z,22.96
2022-08-26T07:56:54.826Z,23.08
2022-08-26T07:59:58.125Z,23.10
2022-08-26T08:03:02.087Z,23.31
2022-08-26T08:06:04.097Z,23.35
2022-08-26T08:09:08.781Z,23.43
2022-08-26T08:12:14.136Z,23.45
2022-08-26T08:15:16.553Z,23.47
2022-08-26T08:18:20.491Z,23.65
2022-08-26T08:21:23.926Z,23.76
2022-08-26T08:24:25.843Z,23.93
2022-08-26T08:27:27.737Z,23.98
2022-08-26T08:30:29.861Z,23.97
2022-08-26T08:33:33.771Z,23.94
2022-08-26T08:36:36.275Z,23.92
2022-08-26T08:39:37.944Z,23.93
2022-08-26T08:42:44.258Z,23.95
2022-08-26T08:45:47.344Z,24.09
2022-08-26T08:48:56.784Z,24.13
2022-08-26T08:52:02.605Z,24.31
2022-08-26T08:55:11.164Z,24.46
2022-08-26T08:58:17.497Z,24.54
2022-08-26T09:01:28.273Z,24.48
2022-08-26T09:04:41.940Z,24.42
2022-08-26T09:07:45.114Z,24.39
2022-08-26T09:10:51.473Z,24.37
2022-08-26T09:13:53.750Z,24.41
2022-08-26T09:17:01.509Z,24.41
2022-08-26T09:20:12.283Z,24.44
2022-08-26T09:23:14.537Z,24.46
2022-08-26T09:26:17.595Z,24.50
2022-08-26T09:32:24.916Z,24.68
2022-08-26T09:35:30.997Z,24.69
2022-08-26T09:38:35.718Z,24.78
2022-08-26T09:41:37.854Z,24.79
2022-08-26T09:44:53.285Z,24.81
2022-08-26T09:47:56.302Z,24.88
2022-08-26T09:51:01.308Z,24.93
2022-08-26T09:54:05.756Z,25.02
2022-08-26T09:57:16.314Z,25.13
2022-08-26T10:00:32.388Z,25.21
2022-08-26T10:03:36.378Z,25.33
2022-08-26T10:06:41.894Z,25.35
2022-08-26T10:09:44.498Z,25.41
2022-08-26T10:12:56.507Z,25.66
2022-08-26T10:16:01.802Z,25.94
2022-08-26T10:19:06.563Z,26.28
2022-08-26T10:22:13.704Z,26.44
2022-08-26T10:25:17.121Z,26.54
2022-08-26T10:28:21.674Z,26.28
2022-08-26T10:31:27.821Z,26.26
2022-08-26T10:34:29.473Z,26.22
2022-08-26T10:37:34.934Z,26.13
2022-08-26T10:40:44.345Z,26.18
2022-08-26T10:43:48.995Z,26.26
2022-08-26T10:46:54.465Z,26.27
2022-08-26T10:50:00.550Z,26.26
2022-08-26T10:53:12.094Z,26.32
2022-08-26T10:56:19.369Z,26.32
2022-08-26T10:59:24.267Z,26.33
2022-08-26T11:02:35.949Z,26.30
2022-08-26T11:05:37.505Z,26.27
2022-08-26T11:08:47.338Z,26.20
2022-08-26T11:11:49.789Z,26.17
2022-08-26T11:14:53.270Z,26.13
2022-08-26T11:17:56.929Z,26.08
2022-08-26T11:20:58.449Z,26.08
2022-08-26T11:24:01.742Z,26.27
2022-08-26T11:27:04.237Z,26.50
2022-08-26T11:30:07.777Z,26.85
2022-08-26T11:33:09.393Z,26.97
2022-08-26T11:36:12.282Z,26.89
2022-08-26T11:39:18.201Z,27.04
2022-08-26T11:42:27.805Z,27.09
2022-08-26T11:45:32.669Z,27.24
2022-08-26T11:48:35.640Z,27.34
2022-08-26T11:51:40.919Z,27.22
2022-08-26T11:54:58.842Z,27.19
2022-08-26T11:58:07.480Z,26.84
2022-08-26T12:01:11.513Z,26.68
2022-08-26T12:04:17.863Z,26.44
2022-08-26T12:07:23.968Z,26.34
2022-08-26T12:10:29.948Z,26.18
2022-08-26T12:13:33.240Z,25.98
2022-08-26T12:16:39.151Z,25.67
2022-08-26T12:19:41.419Z,25.38
2022-08-26T12:22:43.587Z,25.11
2022-08-26T12:25:50.786Z,25.11
2022-08-26T12:28:55.917Z,25.35
2022-08-26T12:32:07.269Z,25.68
2022-08-26T12:35:10.220Z,25.92
2022-08-26T12:38:12.928Z,26.06
2022-08-26T12:41:29.398Z,26.32
2022-08-26T12:44:33.371Z,26.59
2022-08-26T12:47:43.015Z,26.75
2022-08-26T12:50:50.232Z,26.91
2022-08-26T12:53:51.775Z,27.09
2022-08-26T12:56:54.224Z,27.14
2022-08-26T13:00:11.330Z,27.22
2022-08-26T13:03:38.336Z,27.25
2022-08-26T13:06:40.424Z,27.19
2022-08-26T13:09:45.034Z,27.32
2022-08-26T13:12:46.789Z,27.38
2022-08-26T13:15:48.353Z,27.46
2022-08-26T13:18:56.669Z,27.44
2022-08-26T13:21:59.269Z,27.64
2022-08-26T13:25:01.347Z,27.55
2022-08-26T13:28:03.136Z,27.30
2022-08-26T13:31:05.132Z,26.88
2022-08-26T13:34:09.701Z,26.49
2022-08-26T13:37:13.095Z,26.32
2022-08-26T13:40:14.785Z,26.14
2022-08-26T13:43:17.193Z,26.06
2022-08-26T13:46:20.754Z,25.99
2022-08-26T13:49:24.138Z,25.97
2022-08-26T13:52:30.533Z,25.92
2022-08-26T13:55:32.687Z,25.85
2022-08-26T13:58:34.177Z,25.64
2022-08-26T14:01:36.280Z,25.56
2022-08-26T14:04:39.339Z,25.58
2022-08-26T14:07:40.850Z,25.47
2022-08-26T14:10:42.679Z,25.40
2022-08-26T14:13:44.277Z,25.30
2022-08-26T14:16:59.761Z,25.33
2022-08-26T14:20:04.298Z,25.37
2022-08-26T14:23:14.205Z,25.45
2022-08-26T14:26:28.606Z,25.39
2022-08-26T14:29:31.163Z,25.17
2022-08-26T14:32:33.159Z,24.91
2022-08-26T14:35:36.229Z,24.88
2022-08-26T14:38:37.713Z,24.85
2022-08-26T14:41:42.599Z,24.90
2022-08-26T14:44:45.828Z,25.11
2022-08-26T14:47:48.211Z,25.13
2022-08-26T14:50:51.631Z,24.80
2022-08-26T14:54:11.777Z,24.55
2022-08-26T14:57:13.983Z,24.35
2022-08-26T15:00:15.786Z,24.28
2022-08-26T15:06:20.317Z,24.24
2022-08-26T15:09:22.458Z,24.43
2022-08-26T15:12:24.328Z,24.69
2022-08-26T15:15:26.009Z,24.86
2022-08-26T15:18:27.536Z,24.98
2022-08-26T15:21:33.001Z,25.05
2022-08-26T15:24:34.556Z,25.05
2022-08-26T15:27:36.182Z,25.09
2022-08-26T15:30:38.139Z,25.18
2022-08-26T15:33:40.416Z,25.10
2022-08-26T15:36:44.869Z,25.23
2022-08-26T15:39:46.849Z,25.34
2022-08-26T15:42:51.770Z,25.33
2022-08-26T15:45:59.293Z,25.29
2022-08-26T15:49:01.416Z,25.28
2022-08-26T15:52:05.471Z,25.23
2022-08-26T15:55:07.709Z,25.23
2022-08-26T15:58:10.384Z,25.20
2022-08-26T16:01:15.029Z,25.18
2022-08-26T16:04:28.968Z,25.08
2022-08-26T16:07:32.450Z,25.02
2022-08-26T16:10:34.655Z,24.94
2022-08-26T16:13:39.693Z,24.83
2022-08-26T16:16:42.246Z,24.60
2022-08-26T16:19:43.745Z,24.09
2022-08-26T16:22:46.823Z,23.75
2022-08-26T16:25:48.406Z,23.59
2022-08-26T16:28:49.954Z,23.49
2022-08-26T16:31:53.350Z,23.51
2022-08-26T16:34:57.452Z,23.47
2022-08-26T16:38:00.355Z,23.33
2022-08-26T16:41:03.766Z,23.19
2022-08-26T16:44:05.922Z,23.17
2022-08-26T16:47:07.716Z,23.12
2022-08-26T16:50:10.256Z,23.05
2022-08-26T16:56:15.791Z,22.93
2022-08-26T16:59:19.310Z,22.96
2022-08-26T17:02:21.439Z,22.80
2022-08-26T17:05:25.222Z,22.87
2022-08-26T17:08:28.668Z,22.91
2022-08-26T17:11:30.819Z,22.82
2022-08-26T17:14:33.625Z,22.82
2022-08-26T17:17:35.302Z,22.78
2022-08-26T17:20:37.270Z,22.63
2022-08-26T17:23:43.122Z,22.61
2022-08-26T17:26:48.464Z,22.59
2022-08-26T17:29:55.250Z,22.60
2022-08-26T17:32:56.924Z,22.53
2022-08-26T17:35:59.269Z,22.61
2022-08-26T17:39:02.448Z,22.57
2022-08-26T17:42:04.441Z,22.47
2022-08-26T17:45:06.943Z,22.39
2022-08-26T17:48:08.632Z,22.32
2022-08-26T17:51:13.789Z,22.20
2022-08-26T17:54:17.017Z,22.14
2022-08-26T17:57:18.605Z,22.09
2022-08-26T18:00:23.025Z,21.88
2022-08-26T18:03:24.573Z,21.78
2022-08-26T18:06:26.701Z,21.73
2022-08-26T18:09:31.734Z,21.65
2022-08-26T18:12:33.334Z,21.55
2022-08-26T18:15:35.104Z,21.51
2022-08-26T18:18:36.909Z,21.49
2022-08-26T18:21:38.594Z,21.33
2022-08-26T18:24:41.709Z,21.24
2022-08-26T18:28:00.142Z,21.16
2022-08-26T18:31:02.304Z,21.17
2022-08-26T18:34:03.963Z,21.26
2022-08-26T18:40:18.976Z,21.19
2022-08-26T18:43:21.380Z,21.11
2022-08-26T18:46:25.382Z,21.02
2022-08-26T18:49:30.589Z,20.92
2022-08-26T18:52:32.570Z,20.87
2022-08-26T18:55:36.372Z,20.92
2022-08-26T18:58:38.372Z,20.97
2022-08-26T19:01:40.767Z,20.97
2022-08-26T19:04:42.708Z,20.86
2022-08-26T19:07:44.250Z,20.83
2022-08-26T19:10:51.129Z,20.77
2022-08-26T19:13:55.257Z,20.68
2022-08-26T19:16:57.255Z,20.67
2022-08-26T19:19:59.007Z,20.67
2022-08-26T19:23:05.697Z,20.64
2022-08-26T19:26:13.922Z,20.61
2022-08-26T19:29:15.744Z,20.60
2022-08-26T19:32:17.686Z,20.60
2022-08-26T19:35:19.195Z,20.60
2022-08-26T19:38:21.132Z,20.60
2022-08-26T19:41:34.175Z,20.60
2022-08-26T19:44:57.514Z,20.54
2022-08-26T19:47:59.268Z,20.53
2022-08-26T19:51:03.836Z,20.49
2022-08-26T19:54:05.717Z,20.48
2022-08-26T19:57:08.589Z,20.53
2022-08-26T20:00:11.950Z,20.53
2022-08-26T20:03:14.835Z,20.50
2022-08-26T20:06:17.806Z,20.50
2022-08-26T20:09:21.551Z,20.50
2022-08-26T20:12:24.961Z,20.52
2022-08-26T20:15:26.603Z,20.57
2022-08-26T20:18:48.799Z,20.62
2022-08-26T20:21:50.456Z,20.59
2022-08-26T20:24:52.966Z,20.52
2022-08-26T20:27:55.995Z,20.49
2022-08-26T20:30:57.503Z,20.44
2022-08-26T20:33:59.091Z,20.46
2022-08-26T20:37:00.814Z,20.45
2022-08-26T20:40:02.817Z,20.46
2022-08-26T20:43:06.257Z,20.45
2022-08-26T20:46:08.319Z,20.42
2022-08-26T20:49:18.693Z,20.45
2022-08-26T20:52:21.506Z,20.43
2022-08-26T20:55:23.162Z,20.31
2022-08-26T20:58:26.145Z,20.36
2022-08-26T21:01:30.659Z,20.30
2022-08-26T21:04:32.489Z,20.31
2022-08-26T21:07:34.310Z,20.35
2022-08-26T21:10:36.562Z,20.38
2022-08-26T21:14:03.472Z,20.32
2022-08-26T21:17:01.361Z,20.28
2022-08-26T21:20:03.665Z,20.24
2022-08-26T21:23:05.966Z,20.19
2022-08-26T21:26:08.827Z,20.10
2022-08-26T21:29:13.623Z,20.12
2022-08-26T21:32:15.936Z,19.99
2022-08-26T21:35:17.738Z,19.93
2022-08-26T21:38:19.731Z,19.80
2022-08-26T21:41:25.014Z,19.59
2022-08-26T21:44:27.911Z,19.41
2022-08-26T21:47:30.356Z,19.28
2022-08-26T21:50:31.944Z,19.26
2022-08-26T21:53:33.872Z,19.21
2022-08-26T21:56:39.593Z,19.20
2022-08-26T21:59:42.612Z,19.16
2022-08-26T22:02:44.137Z,19.15
2022-08-26T22:05:47.380Z,19.08
2022-08-26T22:08:48.929Z,19.10
2022-08-26T22:11:50.925Z,19.08
2022-08-26T22:14:54.024Z,19.11
2022-08-26T22:17:55.488Z,19.09
2022-08-26T22:20:58.670Z,19.05
2022-08-26T22:24:00.299Z,18.97
2022-08-26T22:27:01.812Z,18.92
2022-08-26T22:30:05.504Z,18.88
2022-08-26T22:33:07.207Z,18.89
2022-08-26T22:36:14.960Z,18.89
2022-08-26T22:39:17.362Z,18.80
2022-08-26T22:42:18.961Z,18.75
2022-08-26T22:45:22.202Z,18.73
2022-08-26T22:48:24.579Z,18.66
2022-08-26T22:51:28.046Z,18.61
2022-08-26T22:54:29.620Z,18.63
2022-08-26T22:57:31.304Z,18.63
2022-08-26T23:00:34.469Z,18.73
2022-08-26T23:03:36.048Z,18.75
2022-08-26T23:06:39.164Z,18.83
2022-08-26T23:09:40.884Z,18.82
2022-08-26T23:12:42.553Z,18.81
2022-08-26T23:15:45.635Z,18.87
2022-08-26T23:18:47.220Z,18.87
2022-08-26T23:21:49.610Z,18.81
2022-08-26T23:24:51.368Z,18.81
2022-08-26T23:27:52.955Z,18.76
2022-08-26T23:30:55.837Z,18.68
2022-08-26T23:34:16.078Z,18.66
2022-08-26T23:37:19.716Z,18.55
2022-08-26T23:40:27.981Z,18.53
2022-08-26T23:43:29.599Z,18.51
2022-08-26T23:46:33.259Z,18.51
2022-08-26T23:49:35.026Z,18.43
2022-08-26T23:52:55.544Z,18.38
2022-08-26T23:55:57.622Z,18.36
2022-08-26T23:58:59.505Z,18.33
